createdAt,value
2022-08-22T00:00:11.239Z,2.8
2022-08-22T00:02:14.669Z,3.8
2022-08-22T00:02:46.056Z,1.6
2022-08-22T00:02:47.979Z,1.2
2022-08-22T00:03:04.340Z,2.9
2022-08-22T00:04:18.111Z,3.3
2022-08-22T00:06:24.665Z,3.6
2022-08-22T00:08:28.126Z,4
2022-08-22T00:10:31.545Z,3.4
2022-08-22T00:12:34.981Z,4
2022-08-22T00:16:41.868Z,3.5
2022-08-22T00:18:45.311Z,3.5
2022-08-22T00:26:01.962Z,3.7
2022-08-22T00:28:05.421Z,3.5
2022-08-22T00:30:08.838Z,4
2022-08-22T00:32:12.262Z,4.7
2022-08-22T00:34:18.815Z,5.1
2022-08-22T00:36:22.287Z,4.1
2022-08-22T00:38:25.718Z,3.8
2022-08-22T00:44:36.009Z,3.7
2022-08-22T00:46:39.458Z,3.2
2022-08-22T00:48:46.003Z,3
2022-08-22T00:50:49.452Z,2.9
2022-08-22T00:54:56.345Z,3.6
2022-08-22T00:56:59.804Z,3
2022-08-22T00:59:08.504Z,3
2022-08-22T01:01:06.746Z,3.6
2022-08-22T01:03:13.238Z,3.7
2022-08-22T01:05:16.703Z,3
2022-08-22T01:07:20.182Z,3
2022-08-22T01:11:27.053Z,4.2
2022-08-22T01:13:30.520Z,4.1
2022-08-22T01:17:40.664Z,3.3
2022-08-22T01:19:43.955Z,4.1
2022-08-22T01:21:47.401Z,2.8
2022-08-22T01:24:15.122Z,3.8
2022-08-22T01:26:19.390Z,3.8
2022-08-22T01:28:22.849Z,3.1
2022-08-22T01:30:28.563Z,3.6
2022-08-22T01:32:32.061Z,3.3
2022-08-22T01:36:38.930Z,2.9
2022-08-22T01:38:42.364Z,3.7
2022-08-22T01:40:54.273Z,3.4
2022-08-22T01:42:49.302Z,2.7
2022-08-22T01:44:55.841Z,2.9
2022-08-22T01:46:59.284Z,2.9
2022-08-22T01:49:02.732Z,3
2022-08-22T01:51:06.187Z,4.3
2022-08-22T01:53:09.631Z,3
2022-08-22T01:55:13.072Z,3.4
2022-08-22T01:57:16.529Z,3.7
2022-08-22T01:59:23.125Z,3.8
2022-08-22T02:01:26.592Z,4.4
2022-08-22T02:03:29.980Z,3.5
2022-08-22T02:05:33.438Z,3.8
2022-08-22T02:07:36.887Z,3.6
2022-08-22T02:09:40.334Z,4.1
2022-08-22T02:11:43.821Z,4.8
2022-08-22T02:13:50.340Z,3.7
2022-08-22T02:15:53.819Z,3.8
2022-08-22T02:17:57.494Z,4.3
2022-08-22T02:19:00.561Z,5
2022-08-22T02:21:04.011Z,3.7
2022-08-22T02:23:07.465Z,4.4
2022-08-22T02:25:10.889Z,4.1
2022-08-22T02:27:17.474Z,4.9
2022-08-22T02:29:20.940Z,4.4
2022-08-22T02:31:24.383Z,4.3
2022-08-22T02:33:27.843Z,4
2022-08-22T02:35:31.316Z,3.9
2022-08-22T02:37:34.753Z,4.5
2022-08-22T02:39:38.258Z,5.1
2022-08-22T02:43:49.492Z,4.6
2022-08-22T02:49:59.515Z,4.2
2022-08-22T02:52:02.064Z,4.6
2022-08-22T02:54:35.140Z,4.3
2022-08-22T02:56:12.079Z,4.6
2022-08-22T02:58:15.527Z,4
2022-08-22T03:00:31.742Z,3.9
2022-08-22T03:02:22.447Z,4
2022-08-22T03:06:29.348Z,3.5
2022-08-22T03:14:46.277Z,4.6
2022-08-22T03:15:49.696Z,4.4
2022-08-22T03:17:53.053Z,4.9
2022-08-22T03:19:56.426Z,4.7
2022-08-22T03:21:59.923Z,3.5
2022-08-22T03:24:06.449Z,4.5
2022-08-22T03:26:09.883Z,4.5
2022-08-22T03:28:13.350Z,4.7
2022-08-22T03:30:16.829Z,4.8
2022-08-22T03:32:20.258Z,3.9
2022-08-22T03:34:23.689Z,4.2
2022-08-22T03:36:27.147Z,3.9
2022-08-22T03:38:33.694Z,4.3
2022-08-22T03:40:37.136Z,4.6
2022-08-22T03:42:40.581Z,4.8
2022-08-22T03:44:44.049Z,4.1
2022-08-22T03:46:47.460Z,4.8
2022-08-22T03:48:50.916Z,5.2
2022-08-22T03:53:00.926Z,5.4
2022-08-22T03:55:04.369Z,5.1
2022-08-22T03:57:07.800Z,4.4
2022-08-22T03:59:11.270Z,4.8
2022-08-22T04:01:14.803Z,4.5
2022-08-22T04:03:18.179Z,5.5
2022-08-22T04:07:32.372Z,5
2022-08-22T04:12:38.404Z,5.9
2022-08-22T04:14:41.837Z,5.5
2022-08-22T04:16:45.295Z,6
2022-08-22T04:18:48.722Z,5.7
2022-08-22T04:20:55.280Z,5.5
2022-08-22T04:22:58.811Z,5.5
2022-08-22T04:27:07.182Z,6
2022-08-22T04:29:10.629Z,5.4
2022-08-22T04:33:17.576Z,6
2022-08-22T04:37:27.617Z,6.4
2022-08-22T04:43:37.955Z,6.3
2022-08-22T04:45:41.396Z,6.1
2022-08-22T05:00:08.750Z,6.5
2022-08-22T05:04:18.779Z,6.8
2022-08-22T05:06:22.261Z,6.8
2022-08-22T05:08:25.709Z,6.6
2022-08-22T05:12:57.082Z,6.3
2022-08-22T05:15:00.554Z,6
2022-08-22T05:19:15.709Z,6.9
2022-08-22T05:23:17.882Z,6.5
2022-08-22T05:25:20.943Z,6.5
2022-08-22T05:33:37.901Z,7.7
2022-08-22T05:35:43.124Z,6.9
2022-08-22T05:37:44.806Z,6.3
2022-08-22T05:39:48.347Z,7.1
2022-08-22T05:46:01.796Z,7.8
2022-08-22T05:48:05.277Z,6.8
2022-08-22T05:50:08.689Z,7.1
2022-08-22T05:52:12.149Z,6.9
2022-08-22T05:54:15.621Z,7.3
2022-08-22T06:00:29.162Z,8.4
2022-08-22T06:04:36.038Z,8.2
2022-08-22T06:05:39.268Z,9.6
2022-08-22T06:07:42.776Z,8.8
2022-08-22T06:09:46.218Z,8.7
2022-08-22T06:11:52.160Z,8.7
2022-08-22T06:13:56.235Z,7.8
2022-08-22T06:15:59.695Z,7.6
2022-08-22T06:18:03.168Z,8
2022-08-22T06:20:06.640Z,7.1
2022-08-22T06:22:10.086Z,8.2
2022-08-22T06:24:13.560Z,8
2022-08-22T06:26:21.266Z,7.9
2022-08-22T06:30:27.025Z,8.1
2022-08-22T06:36:37.391Z,8.1
2022-08-22T06:38:40.825Z,8.2
2022-08-22T06:42:50.842Z,8.1
2022-08-22T06:44:54.279Z,7.8
2022-08-22T06:46:57.736Z,8.6
2022-08-22T06:53:08.079Z,8.2
2022-08-22T06:57:18.033Z,6.7
2022-08-22T06:59:21.466Z,7.2
2022-08-22T07:01:25.009Z,6.6
2022-08-22T07:02:28.176Z,9.3
2022-08-22T07:04:31.635Z,6.6
2022-08-22T07:06:35.070Z,7.9
2022-08-22T07:08:39.105Z,7.7
2022-08-22T07:10:45.061Z,7.6
2022-08-22T07:12:48.455Z,7.1
2022-08-22T07:14:51.886Z,6.2
2022-08-22T07:18:58.755Z,6
2022-08-22T07:21:02.171Z,5.6
2022-08-22T07:23:05.628Z,5.6
2022-08-22T07:25:12.125Z,6.6
2022-08-22T07:27:15.890Z,6.4
2022-08-22T07:29:18.933Z,5.6
2022-08-22T07:31:22.372Z,5.8
2022-08-22T07:33:26.954Z,5
2022-08-22T07:35:29.156Z,5.7
2022-08-22T07:37:32.578Z,5.5
2022-08-22T07:39:39.156Z,5.6
2022-08-22T07:41:42.495Z,5.3
2022-08-22T07:43:45.855Z,5.7
2022-08-22T07:45:49.172Z,5.8
2022-08-22T07:47:52.554Z,5.2
2022-08-22T07:49:56.161Z,5.3
2022-08-22T07:51:59.345Z,5
2022-08-22T07:54:05.746Z,5.4
2022-08-22T07:56:09.057Z,4.9
2022-08-22T07:58:12.446Z,5.1
2022-08-22T07:59:15.665Z,5
2022-08-22T08:01:19.036Z,4.7
2022-08-22T08:03:22.387Z,4.8
2022-08-22T08:05:25.715Z,4.8
2022-08-22T08:07:32.235Z,5.3
2022-08-22T08:11:38.913Z,3.8
2022-08-22T08:13:42.153Z,4.5
2022-08-22T08:15:45.524Z,5.4
2022-08-22T08:19:52.134Z,4.6
2022-08-22T08:24:01.733Z,3.8
2022-08-22T08:28:08.181Z,3.6
2022-08-22T08:34:17.827Z,3.5
2022-08-22T08:38:27.232Z,2.5
2022-08-22T08:46:39.859Z,1.6
2022-08-22T08:48:42.988Z,1.9
2022-08-22T08:50:49.160Z,2
2022-08-22T08:52:52.932Z,2
2022-08-22T08:54:55.380Z,1.9
2022-08-22T08:57:18.914Z,2.5
2022-08-22T08:59:22.000Z,1.9
2022-08-22T09:01:27.499Z,1.6
2022-08-22T09:03:31.256Z,1.8
2022-08-22T09:05:34.314Z,2.1
2022-08-22T09:07:37.382Z,1.9
2022-08-22T09:09:40.493Z,2.5
2022-08-22T09:11:43.567Z,1.7
2022-08-22T09:13:46.645Z,2.1
2022-08-22T09:15:58.783Z,2.8
2022-08-22T09:19:58.922Z,2.2
2022-08-22T09:22:02.001Z,2.5
2022-08-22T09:24:05.117Z,2.3
2022-08-22T09:26:08.123Z,2.4
2022-08-22T09:28:11.199Z,1.4
2022-08-22T09:30:14.261Z,1.7
2022-08-22T09:32:20.366Z,2.2
2022-08-22T09:34:24.049Z,1.8
2022-08-22T09:36:26.482Z,1.8
2022-08-22T09:38:33.082Z,2.2
2022-08-22T09:40:32.634Z,1.8
2022-08-22T09:44:39.598Z,1.7
2022-08-22T09:46:44.782Z,1.9
2022-08-22T09:50:52.690Z,2
2022-08-22T09:51:53.937Z,2.7
2022-08-22T09:53:56.961Z,2.4
2022-08-22T09:55:59.974Z,2.5
2022-08-22T09:58:02.996Z,2.4
2022-08-22T10:00:09.081Z,1.8
2022-08-22T10:02:15.426Z,2.2
2022-08-22T10:04:19.624Z,2.1
2022-08-22T10:06:18.144Z,2
2022-08-22T10:08:23.542Z,1.9
2022-08-22T10:10:24.192Z,1.4
2022-08-22T10:12:27.280Z,1.9
2022-08-22T10:14:33.346Z,1.4
2022-08-22T10:16:36.332Z,1.9
2022-08-22T10:18:44.010Z,2
2022-08-22T10:20:44.769Z,1.8
2022-08-22T10:22:46.875Z,1.8
2022-08-22T10:24:49.878Z,2.3
2022-08-22T10:26:52.853Z,1.7
2022-08-22T10:28:58.915Z,2.8
2022-08-22T10:31:01.916Z,2.7
2022-08-22T10:33:05.413Z,1.9
2022-08-22T10:35:08.028Z,2.5
2022-08-22T10:37:10.849Z,2.3
2022-08-22T10:41:16.799Z,1.8
2022-08-22T10:43:28.727Z,1.9
2022-08-22T10:48:31.773Z,1.7
2022-08-22T10:50:34.734Z,1.6
2022-08-22T10:52:37.673Z,1.9
2022-08-22T10:56:46.626Z,2
2022-08-22T10:58:49.580Z,1.8
2022-08-22T11:00:52.518Z,2.3
2022-08-22T11:02:55.408Z,2.1
2022-08-22T11:04:58.352Z,2.2
2022-08-22T11:07:01.288Z,1.6
2022-08-22T11:09:04.177Z,2.3
2022-08-22T11:11:10.166Z,2.5
2022-08-22T11:13:13.062Z,1.9
2022-08-22T11:15:15.990Z,2.7
2022-08-22T11:17:27.463Z,1.7
2022-08-22T11:19:21.774Z,2
2022-08-22T11:21:24.686Z,2.2
2022-08-22T11:23:27.573Z,2.3
2022-08-22T11:31:47.188Z,1.9
2022-08-22T11:33:46.411Z,1.5
2022-08-22T11:35:47.930Z,1.7
2022-08-22T11:37:51.366Z,2.2
2022-08-22T11:39:56.718Z,2.2
2022-08-22T11:41:59.493Z,1.9
2022-08-22T11:44:03.481Z,2.2
2022-08-22T11:45:05.272Z,1.9
2022-08-22T11:47:08.096Z,2.3
2022-08-22T11:49:10.905Z,2.7
2022-08-22T11:51:13.798Z,1.8
2022-08-22T11:53:19.622Z,1.6
2022-08-22T11:55:22.384Z,1.5
2022-08-22T11:57:25.174Z,1.3
2022-08-22T12:01:34.146Z,2.3
2022-08-22T12:03:33.495Z,1.2
2022-08-22T12:05:36.245Z,1.4
2022-08-22T12:07:44.443Z,1.8
2022-08-22T12:09:44.832Z,2.5
2022-08-22T12:11:47.558Z,1.3
2022-08-22T12:15:53.865Z,2
2022-08-22T12:18:01.463Z,1.6
2022-08-22T12:20:16.090Z,1.6
2022-08-22T12:26:11.066Z,1.2
2022-08-22T12:28:12.259Z,1.2
2022-08-22T12:30:15.009Z,1.6
2022-08-22T12:34:20.358Z,1.7
2022-08-22T12:36:26.128Z,1.6
2022-08-22T12:38:31.248Z,1.5
2022-08-22T12:40:31.609Z,1.5
2022-08-22T12:42:54.653Z,1.1
2022-08-22T12:44:57.321Z,1.6
2022-08-22T12:49:07.592Z,1
2022-08-22T12:53:12.249Z,1.2
2022-08-22T12:57:24.475Z,1.2
2022-08-22T12:59:19.154Z,1.7
2022-08-22T13:01:23.284Z,1.5
2022-08-22T13:03:27.654Z,1.5
2022-08-22T13:05:30.359Z,1.6
2022-08-22T13:07:33.081Z,1.7
2022-08-22T13:09:36.566Z,1.4
2022-08-22T13:11:39.327Z,1.5
2022-08-22T13:15:44.830Z,1.7
2022-08-22T13:17:50.690Z,2.4
2022-08-22T13:19:53.447Z,1.5
2022-08-22T13:21:56.234Z,1.5
2022-08-22T13:23:59.044Z,1.6
2022-08-22T13:26:01.810Z,1.8
2022-08-22T13:28:04.871Z,2.1
2022-08-22T13:30:07.362Z,1.4
2022-08-22T13:32:13.239Z,1.4
2022-08-22T13:34:16.026Z,1.8
2022-08-22T13:36:18.803Z,1.8
2022-08-22T13:37:24.859Z,1.4
2022-08-22T13:39:24.531Z,1.4
2022-08-22T13:41:27.333Z,1.7
2022-08-22T13:43:30.124Z,1.7
2022-08-22T13:45:35.993Z,1.7
2022-08-22T13:47:39.438Z,2
2022-08-22T13:49:41.585Z,1.3
2022-08-22T13:51:44.399Z,1.7
2022-08-22T13:54:00.564Z,1.9
2022-08-22T13:55:49.867Z,1.6
2022-08-22T13:57:52.669Z,1.5
2022-08-22T14:00:05.595Z,1.7
2022-08-22T14:02:01.272Z,1.7
2022-08-22T14:04:03.954Z,1.6
2022-08-22T14:06:38.131Z,1.9
2022-08-22T14:08:12.660Z,2.2
2022-08-22T14:10:14.647Z,1.8
2022-08-22T14:12:14.936Z,2.3
2022-08-22T14:14:20.780Z,2.2
2022-08-22T14:16:23.516Z,1.8
2022-08-22T14:18:30.077Z,2.2
2022-08-22T14:20:33.527Z,1.8
2022-08-22T14:22:34.981Z,1.6
2022-08-22T14:24:34.573Z,1.5
2022-08-22T14:26:47.358Z,1.5
2022-08-22T14:28:43.415Z,1.5
2022-08-22T14:30:46.027Z,1.7
2022-08-22T14:33:51.784Z,1.3
2022-08-22T14:35:54.612Z,1.8
2022-08-22T14:37:57.440Z,1.2
2022-08-22T14:40:00.298Z,1.5
2022-08-22T14:42:06.160Z,1.7
2022-08-22T14:44:08.976Z,1.9
2022-08-22T14:46:11.799Z,1.4
2022-08-22T14:48:30.941Z,1.6
2022-08-22T14:50:17.462Z,1.2
2022-08-22T14:52:20.571Z,1.5
2022-08-22T14:54:23.208Z,1.4
2022-08-22T14:56:29.071Z,1.5
2022-08-22T14:58:31.917Z,2.1
2022-08-22T15:00:34.750Z,1.6
2022-08-22T15:02:37.657Z,1.6
2022-08-22T15:04:40.464Z,1.6
2022-08-22T15:06:48.229Z,1.5
2022-08-22T15:08:46.287Z,1.9
2022-08-22T15:10:52.124Z,1.1
2022-08-22T15:12:54.997Z,1.5
2022-08-22T15:17:00.715Z,1.5
2022-08-22T15:19:06.726Z,1.5
2022-08-22T15:21:06.923Z,1.4
2022-08-22T15:23:10.052Z,1.5
2022-08-22T15:25:15.300Z,1.4
2022-08-22T15:27:18.207Z,1.9
2022-08-22T15:29:21.074Z,1.8
2022-08-22T15:30:24.050Z,1.6
2022-08-22T15:32:26.985Z,1.5
2022-08-22T15:34:29.861Z,1.5
2022-08-22T15:36:32.767Z,1.6
2022-08-22T15:38:38.736Z,1.3
2022-08-22T15:40:41.653Z,2.1
2022-08-22T15:46:50.413Z,2.2
2022-08-22T15:48:53.310Z,1.5
2022-08-22T15:50:56.213Z,2
2022-08-22T15:57:07.957Z,2
2022-08-22T16:09:28.529Z,1.2
2022-08-22T16:11:33.249Z,2.3
2022-08-22T16:15:38.839Z,1.6
2022-08-22T16:17:41.735Z,1.7
2022-08-22T16:21:50.602Z,1.4
2022-08-22T16:28:28.238Z,1.4
2022-08-22T16:30:22.792Z,1.7
2022-08-22T16:32:25.690Z,1.4
2022-08-22T16:36:34.553Z,1.9
2022-08-22T16:40:40.379Z,1.7
2022-08-22T16:44:46.203Z,1.8
2022-08-22T16:46:49.167Z,1.5
2022-08-22T16:50:58.054Z,1.9
2022-08-22T16:53:00.941Z,1.7
2022-08-22T16:55:03.885Z,1.9
2022-08-22T16:57:06.789Z,2.2
2022-08-22T16:59:22.476Z,1.5
2022-08-22T17:01:12.709Z,0.8
2022-08-22T17:03:18.660Z,1.5
2022-08-22T17:05:21.578Z,1.5
2022-08-22T17:07:24.501Z,1.6
2022-08-22T17:11:30.342Z,1.7
2022-08-22T17:13:33.277Z,2.5
2022-08-22T17:15:36.198Z,1.6
2022-08-22T17:17:42.175Z,1.9
2022-08-22T17:21:50.600Z,1.5
2022-08-22T17:22:51.063Z,1.3
2022-08-22T17:26:56.990Z,1.2
2022-08-22T17:28:59.913Z,1.5
2022-08-22T17:31:05.934Z,1.4
2022-08-22T17:33:08.879Z,1.1
2022-08-22T17:35:11.851Z,1.7
2022-08-22T17:37:14.843Z,1.3
2022-08-22T17:39:17.804Z,2.2
2022-08-22T17:41:22.027Z,2.1
2022-08-22T17:43:23.785Z,2.3
2022-08-22T17:45:29.808Z,1.8
2022-08-22T17:47:32.795Z,2.6
2022-08-22T17:49:35.801Z,1.7
2022-08-22T17:51:38.772Z,1.4
2022-08-22T17:53:41.784Z,1.3
2022-08-22T17:55:44.785Z,1.5
2022-08-22T17:57:47.793Z,1.6
2022-08-22T18:01:56.856Z,1.6
2022-08-22T18:03:59.881Z,1.8
2022-08-22T18:06:02.859Z,2.6
2022-08-22T18:10:08.923Z,1.6
2022-08-22T18:14:17.961Z,2.3
2022-08-22T18:16:21.009Z,1.5
2022-08-22T18:18:28.165Z,1.7
2022-08-22T18:21:30.085Z,1.4
2022-08-22T18:23:39.087Z,1.5
2022-08-22T18:25:36.042Z,2.1
2022-08-22T18:27:42.099Z,2.3
2022-08-22T18:29:45.144Z,1.6
2022-08-22T18:31:48.139Z,1.5
2022-08-22T18:33:51.831Z,2
2022-08-22T18:40:00.366Z,2.6
2022-08-22T18:44:09.371Z,1.4
2022-08-22T18:46:12.392Z,1.6
2022-08-22T18:48:15.457Z,2.3
2022-08-22T18:52:21.572Z,2
2022-08-22T18:54:24.636Z,1.7
2022-08-22T18:56:30.735Z,1.7
2022-08-22T18:58:33.802Z,2.4
2022-08-22T19:02:39.958Z,3
2022-08-22T19:04:43.035Z,1.7
2022-08-22T19:06:46.114Z,1.8
2022-08-22T19:08:53.095Z,1.8
2022-08-22T19:10:55.332Z,2.3
2022-08-22T19:12:58.585Z,1.7
2022-08-22T19:15:01.558Z,1.8
2022-08-22T19:16:04.606Z,2.1
2022-08-22T19:18:07.681Z,2
2022-08-22T19:20:10.759Z,2.2
2022-08-22T19:22:13.835Z,2.2
2022-08-22T19:24:19.990Z,1.8
2022-08-22T19:26:23.390Z,2.3
2022-08-22T19:28:26.170Z,2.4
2022-08-22T19:30:29.251Z,2.1
2022-08-22T19:32:32.342Z,2.2
2022-08-22T19:36:38.582Z,2
2022-08-22T19:38:44.731Z,2.2
2022-08-22T19:40:47.831Z,2
2022-08-22T19:42:50.958Z,2.7
2022-08-22T19:44:54.103Z,2.3
2022-08-22T19:46:57.214Z,2.1
2022-08-22T19:49:00.344Z,2.2
2022-08-22T19:51:03.458Z,2.2
2022-08-22T19:53:09.649Z,1.9
2022-08-22T19:55:12.758Z,2.6
2022-08-22T19:59:19.027Z,2.8
2022-08-22T20:05:28.477Z,2.3
2022-08-22T20:07:34.621Z,2.9
2022-08-22T20:11:40.934Z,2.5
2022-08-22T20:14:10.315Z,2.4
2022-08-22T20:16:13.551Z,2.4
2022-08-22T20:18:47.676Z,2.5
2022-08-22T20:20:22.815Z,3
2022-08-22T20:22:25.999Z,2.8
2022-08-22T20:24:29.134Z,3
2022-08-22T20:26:32.306Z,3.7
2022-08-22T20:28:35.466Z,3.2
2022-08-22T20:30:38.629Z,3.1
2022-08-22T20:32:41.821Z,3.1
2022-08-22T20:34:48.023Z,3.7
2022-08-22T20:37:09.615Z,3.6
2022-08-22T20:38:55.622Z,3.2
2022-08-22T20:40:57.864Z,3.1
2022-08-22T20:43:00.876Z,3.4
2022-08-22T20:45:04.089Z,3.6
2022-08-22T20:47:07.350Z,3.4
2022-08-22T20:49:13.616Z,3.6
2022-08-22T20:51:16.771Z,3.2
2022-08-22T20:53:20.342Z,2.8
2022-08-22T20:55:23.150Z,3.3
2022-08-22T20:57:33.217Z,3.6
2022-08-22T20:59:29.567Z,3.5
2022-08-22T21:01:32.880Z,3.3
2022-08-22T21:03:38.979Z,4.3
2022-08-22T21:05:42.675Z,5.1
2022-08-22T21:07:45.891Z,4.5
2022-08-22T21:14:59.021Z,3.8
2022-08-22T21:19:08.821Z,4.2
2022-08-22T21:27:22.082Z,3.9
2022-08-22T21:29:25.431Z,4.9
2022-08-22T21:31:31.937Z,4.8
2022-08-22T21:33:35.258Z,4.2
2022-08-22T21:35:38.616Z,4.3
2022-08-22T21:37:41.975Z,4.8
2022-08-22T21:41:48.603Z,4.2
2022-08-22T21:43:54.045Z,5.1
2022-08-22T21:45:58.472Z,4.2
2022-08-22T21:48:02.117Z,4.6
2022-08-22T21:50:05.262Z,5.1
2022-08-22T21:52:08.558Z,4.8
2022-08-22T21:54:18.373Z,5
2022-08-22T21:56:15.282Z,5.7
2022-08-22T21:58:35.862Z,4.9
2022-08-22T22:00:25.143Z,5.7
2022-08-22T22:02:28.523Z,5.5
2022-08-22T22:04:31.895Z,6.1
2022-08-22T22:07:38.531Z,5.8
2022-08-22T22:20:03.400Z,6.4
2022-08-22T22:24:10.167Z,6.1
2022-08-22T22:26:13.549Z,6.7
2022-08-22T22:28:20.068Z,5.2
2022-08-22T22:36:33.847Z,6.1
2022-08-22T22:38:37.042Z,6
2022-08-22T22:44:50.336Z,6.2
2022-08-22T22:46:53.747Z,6.3
2022-08-22T22:51:00.558Z,6.1
2022-08-22T22:53:04.117Z,5.8
2022-08-22T23:01:20.846Z,6.6
2022-08-22T23:02:23.980Z,6.2
2022-08-22T23:04:27.416Z,6.4
2022-08-22T23:06:30.814Z,7
2022-08-22T23:08:34.228Z,6.7
2022-08-22T23:10:40.764Z,6.6
2022-08-22T23:12:44.176Z,6.4
2022-08-22T23:14:47.575Z,7.4
2022-08-22T23:16:51.032Z,6.9
2022-08-22T23:18:54.389Z,6.2
2022-08-22T23:20:57.841Z,6.9
2022-08-22T23:23:01.264Z,6.4
2022-08-22T23:27:11.185Z,6.8
2022-08-22T23:29:14.618Z,6.9
2022-08-22T23:31:18.041Z,5.8
2022-08-22T23:33:21.338Z,6.7
2022-08-22T23:35:24.844Z,5.8
2022-08-22T23:37:28.201Z,7.7
2022-08-22T23:39:34.737Z,7.5
2022-08-22T23:41:38.145Z,7
2022-08-22T23:43:41.608Z,7.8
2022-08-22T23:45:45.027Z,6.7
2022-08-22T23:47:48.855Z,7
2022-08-22T23:49:52.336Z,6.6
2022-08-22T23:51:55.731Z,6.5
2022-08-22T23:54:02.282Z,6.9
2022-08-22T23:58:09.162Z,8.3
